Prairie Du Chien, WI

7:37 PM CDT on July 28, 2014 (GMT -0500)
Prairie Du Chien Municipal (KPDC) Elev 659 ft | 43.02 °N, 91.12 °W | Change Station

Current weather conditions updated 42 minutes ago

Scattered Clouds
Scattered Clouds
72 °F
Feels Like 72 °F
N
8
Wind Variable Wind from NNW

Tomorrow is forecast to be Warmer than today.

Today
High -- | Low -- °F
--% Chance of Precip.
Yesterday
High -- | Low -- °F
Precip. -- in
5:51 AM 8:30 PM
Waxing Crescent, 4% visible
Pressure 30.12 in
Visibility 10.0 miles
Clouds Scattered Clouds 7500 ft
Dew Point 46 °F
Humidity 40%
Rainfall 0.00 in
Snow Depth Not available.
UV 1 out of 12
Pollen 7.10 out of 12
Air Quality Not available.
Flu Activity Not available.
METAR KPDC 282355Z AUTO 33007KT 10SM SCT075 22/08 A3012 RMK AO2 T02220080 10240 20217

More Conditions Fewer Conditions

Pressure 30.12 in
Visibility 10.0 miles
Clouds Scattered Clouds 7500 ft
Dew Point 46 °F
Humidity 40%
Rainfall 0.00 in
Snow Depth Not available.
UV 1 out of 12
Pollen 7.10 out of 12
Air Quality Not available.
Flu Activity Not available.
METAR KPDC 282355Z AUTO 33007KT 10SM SCT075 22/08 A3012 RMK AO2 T02220080 10240 20217

More Conditions Fewer Conditions

10-Day Weather Forecast

Almanac

Astronomy

Jul. 28, 2014 Rise Set
Actual Time 5:51 AM CDT 8:30 PM CDT
Civil Twilight 5:18 AM CDT 9:02 PM CDT
Nautical Twilight 4:37 AM CDT 9:43 PM CDT
Astronomical Twilight 3:50 AM CDT 10:30 PM CDT
Moon 7:37 AM CDT (7/28) 9:07 PM CDT (7/28)
Length of Visible Light 15h 44m
Length of Day
14h 38m
Tomorrow will be 2m 6s shorter.
Waxing Crescent, 4% of the Moon is Illuminated
Today
Waxing Crescent
Aug 3
First Quarter
Aug 10
Full
Aug 17
Last Quarter
Aug 25
New

Today's Extremes

State Highs State Lows

Community

WunderPhotos

Upload Photos

1,738,562 photos uploaded!

WunderBlogs® & News

Nearby

Snow Depth

Station Depth Elevation
No new snow has been reported.

Earthquake Activity

City Distance Mag. Time & Date
No recent earthquake activity has been reported nearby.
Minimum magnitude displayed is 2.5.

Coastal Water Temperatures

Place Temperature
No Stations Reporting

Nearby Weather Stations

Station Location Temp. Heat Index Dew Point Humidity Wind Precip. Elev Updated Type
Monona, IA 69.6 °F - 57 °F 64% NNW  at  2.0 mph 0.00 in / hr 1214 ft 7:33 PM CDT Normal
Paint Creek Township, Waterville, IA 72.0 °F 76 °F 57 °F 59% South  at  0.0 mph 0.00 in / hr 951 ft 7:30 PM CDT Normal
Postville, IA 69.7 °F - 56 °F 61% North  at  0.0 mph 0.00 in / hr 1181 ft 7:33 PM CDT Normal
RAWS BOSCOBEL WI, Boscobel, WI 73 °F 77 °F 52 °F 47% NW  at  3 mph 0.00 in / hr 672 ft 7:03 PM CDT MADIS

Show More Stations Show Fewer Stations